Time;durP1;ratioP1;P1;durP2;ratioP2;P2;SDS_P1;SDS_P2;PMS_P1;PMS_P2;Temp;Humidity;BMP_temperature;BMP_pressure;BME280_temperature;BME280_humidity;BME280_pressure;Samples;Min_cycle;Max_cycle;Signal;HPM_P1;HPM_P2
2023/04/10 00:00:12;;;;;;;0.60;0.60;;;13.80;81.10;;;13.49;66.23;95633.00;5054009;28;20195;-18
2023/04/10 00:02:40;;;;;;;0.60;0.60;;;13.90;80.40;;;13.50;66.11;95628.53;5037601;28;20219;-18
2023/04/10 00:05:08;;;;;;;0.50;0.50;;;13.90;80.30;;;13.48;66.42;95622.66;5037430;28;20253;-18
2023/04/10 00:07:36;;;;;;;0.60;0.60;;;13.90;80.30;;;13.48;66.29;95623.47;5054590;28;20272;-18
2023/04/10 00:10:04;;;;;;;0.60;0.60;;;13.90;80.30;;;13.49;66.57;95624.28;5055213;28;20195;-18
2023/04/10 00:12:31;;;;;;;0.60;0.60;;;13.90;80.30;;;13.49;66.46;95624.28;5054772;28;20261;-18
2023/04/10 00:14:59;;;;;;;0.60;0.60;;;13.90;80.40;;;13.50;66.16;95623.25;5054517;28;20522;-18
2023/04/10 00:17:26;;;;;;;0.63;0.63;;;13.90;80.50;;;13.49;66.41;95617.19;5054634;28;20219;-18
2023/04/10 00:19:55;;;;;;;0.50;0.50;;;13.90;80.50;;;13.48;66.25;95623.47;5054444;28;20195;-18
2023/04/10 00:22:22;;;;;;;0.50;0.50;;;13.90;80.40;;;13.49;66.46;95617.19;5037363;28;20191;-18
2023/04/10 00:24:50;;;;;;;0.50;0.50;;;13.90;80.40;;;13.48;66.21;95610.28;5054411;28;20282;-18
2023/04/10 00:27:18;;;;;;;0.63;0.63;;;13.90;80.40;;;13.48;66.48;95612.94;5054574;28;20212;-18
2023/04/10 00:29:46;;;;;;;0.68;0.68;;;13.90;80.40;;;13.48;66.29;95607.66;5054609;28;20211;-18
2023/04/10 00:32:13;;;;;;;0.52;0.52;;;13.80;80.40;;;13.50;66.32;95610.09;5054750;28;20571;-18
2023/04/10 00:34:41;;;;;;;0.60;0.60;;;13.90;80.40;;;13.49;66.38;95601.38;5054501;28;20199;-18
2023/04/10 00:37:09;;;;;;;0.60;0.60;;;13.90;80.40;;;13.50;66.16;95607.44;5054301;28;20188;-18
2023/04/10 00:39:37;;;;;;;0.50;0.50;;;13.90;80.30;;;13.48;66.09;95605.03;5037246;28;20223;-18
2023/04/10 00:42:08;;;;;;;0.80;0.80;;;13.90;80.40;;;13.48;66.34;95602.38;5037532;28;20191;-18
2023/04/10 00:44:36;;;;;;;0.57;0.57;;;13.80;80.30;;;13.47;66.22;95605.22;5054350;28;20179;-18
2023/04/10 00:47:05;;;;;;;0.57;0.57;;;13.90;80.40;;;13.48;66.08;95602.38;5054374;28;20215;-18
2023/04/10 00:49:33;;;;;;;0.50;0.50;;;13.80;80.30;;;13.47;66.04;95606.03;5053418;28;20200;-18
2023/04/10 00:52:01;;;;;;;0.50;0.50;;;13.90;80.40;;;13.48;66.32;95601.59;5017349;28;20205;-18
2023/04/10 00:54:30;;;;;;;0.70;0.70;;;13.90;80.40;;;13.47;66.25;95603.38;5034329;28;20188;-18
2023/04/10 00:56:58;;;;;;;0.80;0.80;;;13.90;80.30;;;13.48;66.12;95605.03;5034961;28;20202;-18
2023/04/10 00:59:25;;;;;;;0.60;0.60;;;13.90;80.30;;;13.48;66.32;95601.59;5017058;28;20310;-18
2023/04/10 01:01:54;;;;;;;0.57;0.57;;;13.90;80.40;;;13.48;66.22;95604.22;5033585;28;20212;-18
2023/04/10 01:04:25;;;;;;;0.60;0.60;;;13.80;80.30;;;13.48;66.43;95596.31;5034281;28;20246;-18
2023/04/10 01:07:26;;;;;;;0.50;0.50;;;13.90;80.40;;;13.47;66.46;95605.22;5034412;28;20186;-18
2023/04/10 01:10:04;;;;;;;0.57;0.57;;;13.80;80.30;;;13.46;66.29;95599.13;5019876;28;20180;-18
2023/04/10 01:13:10;;;;;;;0.60;0.60;;;13.90;80.30;;;13.43;66.30;95604.78;5002616;28;20192;-18
2023/04/10 01:16:04;;;;;;;0.55;0.55;;;13.80;80.30;;;13.42;66.13;95595.25;5020615;28;20184;-18
2023/04/10 01:19:00;;;;;;;0.70;0.70;;;13.80;80.30;;;13.40;66.23;95602.53;5020615;28;20204;-18
2023/04/10 01:21:30;;;;;;;0.70;0.70;;;13.80;80.30;;;13.39;66.40;95595.63;5020636;28;20246;-18
2023/04/10 01:24:53;;;;;;;0.60;0.60;;;13.80;80.30;;;13.39;66.34;95598.25;5037850;28;20283;-18
2023/04/10 01:27:57;;;;;;;0.60;0.60;;;13.80;80.40;;;13.38;66.20;95596.66;5037832;28;20307;-18
2023/04/10 01:30:26;;;;;;;0.70;0.70;;;13.80;80.30;;;13.37;66.37;95601.06;5037780;28;20208;-18
2023/04/10 01:32:58;;;;;;;0.60;0.60;;;13.80;80.30;;;13.37;66.25;95602.91;5020062;28;20203;-18
2023/04/10 01:35:28;;;;;;;0.50;0.50;;;13.80;80.30;;;13.38;65.98;95607.19;5020002;28;20307;-18
2023/04/10 01:38:00;;;;;;;0.65;0.65;;;13.80;80.30;;;13.39;66.32;95603.53;5020073;28;20201;-18
2023/04/10 01:40:30;;;;;;;0.60;0.60;;;13.80;80.30;;;13.38;66.52;95592.19;5020251;28;20238;-18
2023/04/10 01:43:01;;;;;;;0.60;0.60;;;13.80;80.40;;;13.38;66.60;95602.72;5003860;28;20223;-18
2023/04/10 01:45:42;;;;;;;0.50;0.50;;;13.80;80.40;;;13.37;66.26;95595.78;5021243;28;20206;-18
2023/04/10 01:48:10;;;;;;;0.68;0.68;;;13.80;80.40;;;13.38;66.35;95592.19;5019983;28;20681;-18
2023/04/10 01:50:39;;;;;;;0.60;0.60;;;13.80;80.30;;;13.38;66.66;95600.09;5028245;28;20235;-18
2023/04/10 01:53:07;;;;;;;0.60;0.60;;;13.80;80.40;;;13.40;66.52;95597.25;5039573;28;20202;-18
2023/04/10 01:55:37;;;;;;;0.60;0.60;;;13.80;80.30;;;13.39;66.39;95604.34;5056085;28;20191;-18
2023/04/10 01:58:06;;;;;;;0.60;0.60;;;13.80;80.30;;;13.39;66.23;95600.91;5023352;28;20188;-18
2023/04/10 02:00:42;;;;;;;0.60;0.60;;;13.90;80.40;;;13.38;66.21;95602.72;5022270;28;20218;-18
2023/04/10 02:03:11;;;;;;;0.60;0.60;;;13.80;80.40;;;13.38;66.52;95597.44;5023241;28;20195;-18
2023/04/10 02:06:07;;;;;;;0.70;0.70;;;13.80;80.30;;;13.38;66.18;95605.34;5023268;28;20211;-18
2023/04/10 02:09:25;;;;;;;0.70;0.70;;;13.80;80.30;;;13.36;66.30;95606.53;5022857;28;20310;-18
2023/04/10 02:12:08;;;;;;;0.80;0.80;;;13.80;80.30;;;13.34;66.37;95605.91;5057107;28;20179;-18
2023/04/10 02:14:40;;;;;;;0.60;0.60;;;13.80;80.30;;;13.34;66.61;95604.09;5039598;28;20592;-18
2023/04/10 02:17:10;;;;;;;0.60;0.60;;;13.80;80.30;;;13.33;66.21;95605.09;5035635;28;20206;-18
2023/04/10 02:19:39;;;;;;;0.63;0.63;;;13.80;80.30;;;13.35;66.18;95599.63;5039829;28;20249;-18
2023/04/10 02:22:07;;;;;;;0.50;0.50;;;13.80;80.40;;;13.35;66.17;95615.44;5039146;28;20209;-18
2023/04/10 02:24:35;;;;;;;0.70;0.70;;;13.80;80.30;;;13.36;66.14;95609.16;5038877;28;20213;-18
2023/04/10 02:27:03;;;;;;;0.50;0.50;;;13.80;80.30;;;13.35;66.44;95604.91;5039252;28;20191;-18
2023/04/10 02:29:31;;;;;;;0.80;0.80;;;13.80;80.30;;;13.36;66.50;95606.53;5055564;28;20202;-18
2023/04/10 02:32:02;;;;;;;0.70;0.70;;;13.80;80.30;;;13.35;66.56;95603.06;5038864;28;20584;-18
2023/04/10 02:34:30;;;;;;;0.55;0.55;;;13.80;80.30;;;13.34;66.29;95598.81;5056374;28;20199;-18
2023/04/10 02:36:58;;;;;;;0.50;0.50;;;13.80;80.30;;;13.34;66.62;95596.19;5038724;28;20202;-18
2023/04/10 02:39:28;;;;;;;0.75;0.75;;;13.80;80.30;;;13.34;66.49;95601.47;5039333;28;20192;-18
2023/04/10 02:41:56;;;;;;;0.60;0.60;;;13.80;80.30;;;13.35;66.40;95603.06;5032527;28;20199;-18
2023/04/10 02:44:25;;;;;;;0.68;0.68;;;13.80;80.30;;;13.33;66.38;95597.19;5056278;28;20199;-18
2023/04/10 02:46:53;;;;;;;0.80;0.80;;;13.80;80.30;;;13.34;66.31;95598.00;5039410;28;20226;-18
2023/04/10 02:49:20;;;;;;;0.70;0.70;;;13.80;80.30;;;13.34;66.50;95601.47;5038581;28;20219;-18
2023/04/10 02:51:48;;;;;;;0.60;0.60;;;13.80;80.30;;;13.33;66.29;95602.47;5038540;28;20258;-18
2023/04/10 02:54:15;;;;;;;0.70;0.70;;;13.80;80.30;;;13.33;66.45;95596.38;5038289;28;20206;-18
2023/04/10 02:56:42;;;;;;;0.77;0.77;;;13.80;80.30;;;13.33;66.56;95599.81;5055072;28;20188;-18
2023/04/10 02:59:10;;;;;;;0.60;0.60;;;13.80;80.30;;;13.33;66.24;95599.00;5039396;28;20305;-18
2023/04/10 03:01:38;;;;;;;0.70;0.70;;;13.80;80.20;;;13.32;66.68;95600.00;5038504;28;20688;-18
2023/04/10 03:04:05;;;;;;;0.60;0.60;;;13.80;80.30;;;13.32;66.22;95598.19;5021990;28;20201;-18
2023/04/10 03:06:37;;;;;;;0.60;0.60;;;13.80;80.40;;;13.31;66.41;95596.56;5038058;28;20195;-18
2023/04/10 03:09:05;;;;;;;0.60;0.60;;;13.80;80.30;;;13.32;66.23;95597.38;5038131;28;20229;-18
2023/04/10 03:11:33;;;;;;;0.70;0.70;;;13.80;80.20;;;13.31;66.38;95596.56;5037840;28;20290;-18
2023/04/10 03:14:01;;;;;;;0.70;0.70;;;13.80;80.20;;;13.31;66.25;95599.19;5038166;28;20203;-18
2023/04/10 03:16:28;;;;;;;0.60;0.60;;;13.80;80.30;;;13.29;66.27;95609.09;5037910;28;20643;-18
2023/04/10 03:18:56;;;;;;;0.55;0.55;;;13.70;80.30;;;13.29;66.53;95602.03;5037974;28;20216;-18
2023/04/10 03:21:23;;;;;;;0.60;0.60;;;13.80;80.30;;;13.29;66.38;95601.19;5038122;28;20272;-18
2023/04/10 03:23:51;;;;;;;0.60;0.60;;;13.70;80.20;;;13.29;66.62;95601.19;5038385;28;20195;-18
2023/04/10 03:26:18;;;;;;;0.63;0.63;;;13.70;80.20;;;13.28;66.35;95602.19;5037707;28;20203;-18
2023/04/10 03:28:46;;;;;;;0.60;0.60;;;13.70;80.20;;;13.28;66.56;95600.41;5055277;28;20305;-18
2023/04/10 03:31:13;;;;;;;0.60;0.60;;;13.70;80.20;;;13.29;66.27;95603.84;5038003;28;20214;-18
2023/04/10 03:33:43;;;;;;;0.80;0.80;;;13.70;80.20;;;13.27;66.37;95592.69;5037928;28;20542;-18
2023/04/10 03:36:10;;;;;;;0.82;0.82;;;13.70;80.20;;;13.27;66.60;95600.59;5037137;28;20598;-18
2023/04/10 03:38:38;;;;;;;0.60;0.60;;;13.70;80.20;;;13.27;66.20;95608.50;5021218;28;20264;-18
2023/04/10 03:41:08;;;;;;;0.70;0.70;;;13.70;80.20;;;13.26;66.43;95607.66;5021650;28;20253;-18
2023/04/10 03:43:35;;;;;;;0.52;0.52;;;13.70;80.20;;;13.26;66.65;95615.56;5037556;28;20199;-18
2023/04/10 03:46:05;;;;;;;0.50;0.50;;;13.70;80.20;;;13.26;66.67;95609.50;5021121;28;20276;-18
2023/04/10 03:48:34;;;;;;;0.70;0.70;;;13.70;80.30;;;13.24;66.43;95603.59;5037399;28;20583;-18
2023/04/10 03:51:01;;;;;;;0.70;0.70;;;13.70;80.20;;;13.25;66.64;95610.50;5033896;28;20232;-18
2023/04/10 03:53:29;;;;;;;0.60;0.60;;;13.70;80.30;;;13.24;66.53;95606.22;5017855;28;20204;-18
2023/04/10 03:55:56;;;;;;;0.60;0.60;;;13.70;80.20;;;13.23;66.53;95600.16;5033789;28;20223;-18
2023/04/10 03:58:24;;;;;;;0.70;0.70;;;13.70;80.20;;;13.23;66.22;95601.97;5001476;28;20196;-18
2023/04/10 04:00:54;;;;;;;0.50;0.50;;;13.70;80.20;;;13.23;66.14;95601.97;5017544;28;20639;-18
2023/04/10 04:03:32;;;;;;;0.80;0.80;;;13.70;80.20;;;13.22;66.63;95600.34;5018168;28;20202;-18
2023/04/10 04:06:00;;;;;;;0.50;0.50;;;13.70;80.20;;;13.20;66.41;95597.91;5018141;28;20200;-18
2023/04/10 04:08:37;;;;;;;0.50;0.50;;;13.70;80.10;;;13.21;66.35;95604.00;5035550;28;20231;-18
2023/04/10 04:11:22;;;;;;;0.60;0.60;;;13.70;80.10;;;13.20;66.57;95605.00;5017563;28;20196;-18
2023/04/10 04:14:15;;;;;;;0.70;0.70;;;13.70;80.10;;;13.17;66.40;95600.94;5019126;28;20290;-18
2023/04/10 04:17:03;;;;;;;0.60;0.60;;;13.70;80.10;;;13.17;66.46;95613.25;5031185;28;20204;-18
2023/04/10 04:19:49;;;;;;;0.80;0.80;;;13.70;80.20;;;13.15;66.40;95610.84;5034490;28;20237;-18
2023/04/10 04:22:23;;;;;;;0.60;0.60;;;13.70;80.10;;;13.16;66.32;95606.38;5017414;28;20290;-18
2023/04/10 04:25:09;;;;;;;0.77;0.77;;;13.60;80.10;;;13.13;66.27;95607.56;5003165;28;20199;-18
2023/04/10 04:27:53;;;;;;;0.60;0.60;;;13.60;80.10;;;13.13;66.45;95610.19;5017617;28;20223;-18
2023/04/10 04:30:32;;;;;;;0.70;0.70;;;13.60;80.10;;;13.13;66.45;95615.47;5017381;28;20192;-18
2023/04/10 04:33:16;;;;;;;0.70;0.70;;;13.60;80.20;;;13.12;66.33;95619.94;5017322;28;20200;-18
2023/04/10 04:35:59;;;;;;;0.60;0.60;;;13.60;80.20;;;13.11;66.47;95615.66;5017164;28;20303;-18
2023/04/10 04:38:42;;;;;;;0.65;0.65;;;13.60;80.20;;;13.10;66.35;95619.28;5017239;28;20192;-18
2023/04/10 04:41:25;;;;;;;0.70;0.70;;;13.60;80.20;;;13.10;66.71;95621.94;5017202;28;20204;-18
2023/04/10 04:44:25;;;;;;;0.60;0.60;;;13.60;80.20;;;13.09;66.78;95616.88;5000485;28;20204;-18
2023/04/10 04:47:09;;;;;;;0.60;0.60;;;13.60;80.20;;;13.07;66.86;95614.44;5018387;28;20647;-18
2023/04/10 04:49:55;;;;;;;0.70;0.70;;;13.60;80.30;;;13.08;66.55;95623.13;5023629;28;20218;-18
2023/04/10 04:52:40;;;;;;;0.68;0.68;;;13.60;80.20;;;13.05;66.46;95621.69;5023842;28;20277;-18
2023/04/10 04:55:23;;;;;;;0.60;0.60;;;13.60;80.20;;;13.05;66.69;95620.84;5023045;28;20687;-18
2023/04/10 04:58:01;;;;;;;0.60;0.60;;;13.60;80.20;;;13.05;66.35;95626.97;5020864;28;20210;-18
2023/04/10 05:00:56;;;;;;;0.70;0.70;;;13.60;80.20;;;13.05;66.66;95626.13;5020708;28;20208;-18
2023/04/10 05:03:42;;;;;;;0.70;0.70;;;13.60;80.20;;;13.04;66.72;95621.88;5038440;28;20203;-18
2023/04/10 05:06:34;;;;;;;0.60;0.60;;;13.60;80.30;;;13.04;66.59;95624.53;5020499;28;20635;-18
2023/04/10 05:09:35;;;;;;;0.60;0.60;;;13.50;80.10;;;13.03;66.72;95628.16;5020560;28;20224;-18
2023/04/10 05:12:12;;;;;;;0.70;0.70;;;13.50;80.10;;;13.03;66.71;95628.97;5036348;28;20188;-18
2023/04/10 05:14:52;;;;;;;0.60;0.60;;;13.50;80.20;;;13.04;66.87;95632.44;5020368;28;20196;-18
2023/04/10 05:17:43;;;;;;;0.70;0.70;;;13.50;80.20;;;13.02;66.75;95635.22;5023845;28;20196;-18
2023/04/10 05:20:29;;;;;;;0.80;0.80;;;13.50;80.20;;;13.02;66.62;95629.16;5037414;28;20234;-18
2023/04/10 05:23:20;;;;;;;0.63;0.63;;;13.50;80.20;;;13.02;66.67;95634.41;5037986;28;20203;-18
2023/04/10 05:26:00;;;;;;;0.60;0.60;;;13.50;80.30;;;13.03;66.76;95633.44;5020082;28;20188;-18
2023/04/10 05:28:50;;;;;;;0.75;0.75;;;13.50;80.30;;;13.01;66.70;95638.88;5020191;28;20279;-18
2023/04/10 05:31:23;;;;;;;0.60;0.60;;;13.60;80.40;;;13.02;66.70;95639.69;5036871;28;20177;-18
2023/04/10 05:34:09;;;;;;;0.80;0.80;;;13.50;80.30;;;13.02;66.54;95637.06;5022793;28;20279;-18
2023/04/10 05:36:52;;;;;;;0.60;0.60;;;13.50;80.30;;;13.03;66.54;95644.75;5037505;28;20600;-18
2023/04/10 05:39:48;;;;;;;0.65;0.65;;;13.50;81.10;;;13.01;66.82;95641.53;4986279;28;20286;-18
2023/04/10 05:42:32;;;;;;;0.60;0.60;;;13.50;80.30;;;13.02;66.88;95645.75;5019913;28;20204;-18
2023/04/10 05:45:32;;;;;;;0.60;0.60;;;13.60;80.30;;;13.01;66.77;95638.88;5003015;28;20541;-18
2023/04/10 05:48:16;;;;;;;0.60;0.60;;;13.50;80.30;;;13.02;66.79;95648.38;5019848;28;20310;-18
2023/04/10 05:51:15;;;;;;;0.60;0.60;;;13.50;80.30;;;13.02;66.56;95651.03;5030863;28;20231;-18
2023/04/10 05:54:04;;;;;;;0.60;0.60;;;13.50;80.30;;;13.02;66.63;95650.22;5050849;28;20264;-18
2023/04/10 05:56:48;;;;;;;0.60;0.60;;;13.50;80.40;;;13.02;66.79;95647.59;5025264;28;20278;-18
2023/04/10 05:59:34;;;;;;;0.80;0.80;;;13.50;80.30;;;13.03;66.96;95649.22;5057431;28;20622;-18
2023/04/10 06:02:24;;;;;;;0.70;0.70;;;13.50;80.30;;;13.01;66.79;95648.59;5039314;28;20199;-18
2023/04/10 06:04:52;;;;;;;0.70;0.70;;;13.50;80.40;;;13.03;67.04;95650.03;5039316;28;20199;-18
2023/04/10 06:07:20;;;;;;;0.70;0.70;;;13.50;80.30;;;13.06;66.73;95665.47;5023380;28;20206;-18
2023/04/10 06:09:48;;;;;;;0.50;0.50;;;13.50;80.30;;;13.04;67.02;95664.81;5039734;28;20248;-18
2023/04/10 06:12:16;;;;;;;0.50;0.50;;;13.50;80.40;;;13.06;66.84;95668.09;5007201;28;20252;-18
2023/04/10 06:14:47;;;;;;;0.55;0.55;;;13.50;80.30;;;13.08;66.82;95667.91;5039992;28;20537;-18
2023/04/10 06:17:20;;;;;;;0.60;0.60;;;13.50;80.40;;;13.08;66.82;95673.97;5039623;28;20634;-18
2023/04/10 06:19:48;;;;;;;0.65;0.65;;;13.60;80.50;;;13.10;66.91;95679.06;5022860;28;20203;-18
2023/04/10 06:22:16;;;;;;;0.60;0.60;;;13.60;80.50;;;13.10;67.04;95671.97;5056854;28;20214;-18
2023/04/10 06:24:46;;;;;;;0.60;0.60;;;13.60;80.50;;;13.11;66.79;95670.97;5038957;28;20200;-18
2023/04/10 06:27:16;;;;;;;0.60;0.60;;;13.60;80.50;;;13.13;66.86;95676.88;5038983;28;20191;-18
2023/04/10 06:29:47;;;;;;;0.60;0.60;;;13.60;80.50;;;13.11;66.88;95673.59;5038833;28;20230;-18
2023/04/10 06:32:18;;;;;;;0.70;0.70;;;13.60;80.50;;;13.12;67.04;95679.69;5039199;28;20584;-18
2023/04/10 06:34:46;;;;;;;0.60;0.60;;;13.60;80.40;;;13.15;66.96;95676.69;5056454;28;20188;-18
2023/04/10 06:37:15;;;;;;;0.70;0.70;;;13.60;80.40;;;13.15;66.95;95689.06;5038631;28;20199;-18
2023/04/10 06:39:42;;;;;;;0.70;0.70;;;13.70;80.50;;;13.17;66.89;95684.38;5038831;28;20294;-18
2023/04/10 06:42:10;;;;;;;0.70;0.70;;;13.60;80.40;;;13.17;67.16;95690.47;5038872;28;20207;-18
2023/04/10 06:44:52;;;;;;;0.60;0.60;;;13.60;80.40;;;13.17;66.97;95689.66;5048176;28;20253;-18
2023/04/10 06:47:20;;;;;;;0.60;0.60;;;13.70;80.50;;;13.17;67.25;95684.38;5038766;28;20222;-18
2023/04/10 06:49:48;;;;;;;0.50;0.50;;;13.70;80.50;;;13.18;66.94;95686.81;5038978;28;20239;-18
2023/04/10 06:52:16;;;;;;;0.60;0.60;;;13.70;80.50;;;13.20;67.00;95691.94;5054885;28;20684;-18
2023/04/10 06:54:44;;;;;;;0.50;0.50;;;13.70;80.40;;;13.20;66.93;95695.34;5055448;28;20697;-18
2023/04/10 06:57:12;;;;;;;0.60;0.60;;;13.70;80.40;;;13.19;66.82;95683.19;5055787;28;20198;-18
2023/04/10 06:59:39;;;;;;;0.80;0.80;;;13.70;80.40;;;13.21;66.92;95691.72;5055928;28;20196;-18
2023/04/10 07:02:07;;;;;;;0.50;0.50;;;13.70;80.40;;;13.20;66.84;95687.47;5038300;28;20214;-18
2023/04/10 07:04:35;;;;;;;0.60;0.60;;;13.70;80.40;;;13.21;66.92;95694.38;5056526;28;20560;-18
2023/04/10 07:07:04;;;;;;;0.60;0.60;;;13.70;80.50;;;13.23;66.92;95702.06;5055681;28;20217;-18
2023/04/10 07:09:32;;;;;;;0.70;0.70;;;13.70;80.40;;;13.24;67.03;95701.06;5038215;28;20605;-18
2023/04/10 07:11:59;;;;;;;0.50;0.50;;;13.70;80.40;;;13.24;66.88;95706.34;5038447;28;20192;-18
2023/04/10 07:14:27;;;;;;;0.60;0.60;;;13.80;80.50;;;13.24;67.04;95704.53;5055956;28;20271;-18
2023/04/10 07:16:54;;;;;;;0.57;0.57;;;13.70;80.40;;;13.26;67.00;95704.34;5038215;28;20215;-18
2023/04/10 07:19:22;;;;;;;0.60;0.60;;;13.80;80.50;;;13.27;66.80;95709.41;5038781;28;20203;-18
2023/04/10 07:21:49;;;;;;;0.50;0.50;;;13.70;80.40;;;13.28;66.81;95707.59;5038157;28;20195;-18
2023/04/10 07:24:17;;;;;;;0.50;0.50;;;13.80;80.50;;;13.29;66.93;95703.94;5055456;28;20630;-18
2023/04/10 07:26:45;;;;;;;0.70;0.70;;;13.70;80.40;;;13.31;67.17;95703.78;5047384;28;20195;-18
2023/04/10 07:29:13;;;;;;;0.60;0.60;;;13.80;80.40;;;13.32;66.73;95703.59;5038003;28;20299;-18
2023/04/10 07:31:40;;;;;;;0.80;0.80;;;13.80;80.40;;;13.33;66.93;95715.75;5055207;28;20197;-18
2023/04/10 07:34:10;;;;;;;0.60;0.60;;;13.80;80.50;;;13.34;66.84;95712.13;5038180;28;20286;-18
2023/04/10 07:36:38;;;;;;;0.60;0.60;;;13.80;80.40;;;13.35;67.04;95707.66;5021799;28;20246;-18
2023/04/10 07:39:06;;;;;;;0.60;0.60;;;13.80;80.40;;;13.36;67.03;95701.38;5037973;28;20274;-18
2023/04/10 07:41:34;;;;;;;0.70;0.70;;;13.80;80.40;;;13.38;67.01;95710.75;5055071;28;20191;-18
2023/04/10 07:44:02;;;;;;;0.50;0.50;;;13.80;80.40;;;13.39;66.96;95712.41;5021336;28;20639;-18
2023/04/10 07:46:30;;;;;;;0.50;0.50;;;13.80;80.40;;;13.40;66.97;95713.19;5055163;28;20518;-18
2023/04/10 07:48:57;;;;;;;0.50;0.50;;;13.80;80.40;;;13.41;67.07;95709.56;5053918;28;20292;-18
2023/04/10 07:51:26;;;;;;;0.50;0.50;;;13.80;80.40;;;13.43;66.93;95712.81;5054894;28;20261;-18
2023/04/10 07:53:54;;;;;;;0.50;0.50;;;13.90;80.50;;;13.44;67.02;95706.56;5038046;28;20633;-18
2023/04/10 07:56:22;;;;;;;0.50;0.50;;;13.90;80.50;;;13.45;66.93;95709.00;5037194;28;20196;-18
2023/04/10 07:58:51;;;;;;;0.77;0.77;;;13.90;80.40;;;13.45;66.89;95703.72;5055059;28;20597;-18
2023/04/10 08:01:20;;;;;;;0.60;0.60;;;13.90;80.40;;;13.47;67.33;95706.16;5054289;28;20210;-18
2023/04/10 08:03:47;;;;;;;0.70;0.70;;;13.90;80.40;;;13.49;67.13;95706.78;5021356;28;20626;-18
2023/04/10 08:06:16;;;;;;;0.60;0.60;;;13.90;80.40;;;13.50;66.76;95708.44;5037610;28;20195;-18
2023/04/10 08:08:43;;;;;;;0.70;0.70;;;13.90;80.40;;;13.51;67.15;95712.69;5054575;28;20279;-18
2023/04/10 08:11:28;;;;;;;0.63;0.63;;;13.90;80.40;;;13.52;66.94;95706.41;5037630;28;20249;-18
2023/04/10 08:14:00;;;;;;;0.70;0.70;;;13.90;80.30;;;13.53;66.82;95709.88;5055082;28;20237;-18
2023/04/10 08:16:30;;;;;;;0.57;0.57;;;14.00;80.40;;;13.54;67.02;95708.88;5054610;28;20182;-18
2023/04/10 08:18:59;;;;;;;0.60;0.60;;;14.00;80.40;;;13.55;66.74;95711.31;5053876;28;20249;-18
2023/04/10 08:21:28;;;;;;;0.50;0.50;;;14.00;80.40;;;13.57;66.93;95709.31;5055755;28;20205;-18
2023/04/10 08:23:59;;;;;;;0.68;0.68;;;14.00;80.40;;;13.58;66.85;95713.53;5041581;28;20215;-18
2023/04/10 08:26:28;;;;;;;0.70;0.70;;;14.00;80.40;;;13.59;67.01;95711.75;5041384;28;20195;-18
2023/04/10 08:28:58;;;;;;;0.75;0.75;;;14.00;80.30;;;13.61;66.59;95715.00;5058236;28;20673;-18
2023/04/10 08:31:27;;;;;;;0.70;0.70;;;14.00;80.40;;;13.63;66.73;95714.81;5041520;28;20607;-18
2023/04/10 08:33:55;;;;;;;0.80;0.80;;;14.00;80.30;;;13.61;66.63;95707.91;5041616;28;20183;-18
2023/04/10 08:36:23;;;;;;;0.73;0.73;;;14.10;80.40;;;13.65;66.74;95703.06;5058552;28;20257;-18
2023/04/10 08:38:51;;;;;;;0.70;0.70;;;14.10;80.40;;;13.66;66.81;95707.34;5058387;28;20196;-18
2023/04/10 08:41:18;;;;;;;0.60;0.60;;;14.10;80.20;;;13.66;66.38;95701.22;5058356;28;20188;-18
2023/04/10 08:43:46;;;;;;;0.60;0.60;;;14.10;79.90;;;13.65;66.18;95704.91;5040415;28;20650;-17
2023/04/10 08:46:13;;;;;;;0.60;0.60;;;14.10;79.60;;;13.64;66.10;95698.00;5058103;28;20194;-17
2023/04/10 08:48:49;;;;;;;0.70;0.70;;;14.10;79.40;;;13.63;65.72;95696.34;5058478;28;20245;-18
2023/04/10 08:51:21;;;;;;;0.65;0.65;;;14.10;79.00;;;13.59;65.88;95696.72;5058316;28;20250;-18
2023/04/10 08:54:09;;;;;;;0.80;0.80;;;14.00;78.70;;;13.58;65.50;95697.72;5058448;28;20190;-18
2023/04/10 08:56:39;;;;;;;0.50;0.50;;;14.00;78.50;;;13.57;65.70;95690.84;5057313;28;20286;-23
2023/04/10 08:59:07;;;;;;;0.55;0.55;;;14.00;78.60;;;13.55;65.50;95692.03;5040894;28;20201;-18
2023/04/10 09:01:35;;;;;;;0.50;0.50;;;14.00;78.40;;;13.53;65.24;95686.16;5058180;28;20195;-18
2023/04/10 09:04:02;;;;;;;0.60;0.60;;;13.90;78.30;;;13.52;65.12;95700.31;5058253;28;20195;-18
2023/04/10 09:06:30;;;;;;;0.60;0.60;;;13.90;78.30;;;13.51;64.99;95696.88;5040811;28;20623;-18
2023/04/10 09:08:58;;;;;;;0.50;0.50;;;13.90;78.40;;;13.49;65.07;95696.25;5057892;28;20253;-18
2023/04/10 09:11:51;;;;;;;0.60;0.60;;;13.90;78.30;;;13.47;64.93;95690.34;5058345;28;20530;-18
2023/04/10 09:14:24;;;;;;;0.80;0.80;;;13.80;77.30;;;13.47;64.67;95692.19;5058653;28;20258;-18
2023/04/10 09:16:53;;;;;;;0.60;0.60;;;13.80;77.90;;;13.47;64.62;95689.56;5057152;28;20258;-18
2023/04/10 09:19:33;;;;;;;0.60;0.60;;;13.80;78.20;;;13.46;64.56;95691.34;5040572;28;20218;-18
2023/04/10 09:22:00;;;;;;;0.70;0.70;;;13.80;77.70;;;13.46;64.86;95688.72;5041175;28;20186;-18
2023/04/10 09:24:28;;;;;;;0.60;0.60;;;13.80;78.20;;;13.47;64.69;95687.72;5040054;28;20506;-18
2023/04/10 09:26:55;;;;;;;0.52;0.52;;;13.80;78.20;;;13.49;64.91;95690.97;5057989;28;20187;-18
2023/04/10 09:29:24;;;;;;;0.80;0.80;;;13.80;78.10;;;13.49;64.56;95690.97;5040005;28;20218;-18
2023/04/10 09:31:52;;;;;;;0.75;0.75;;;13.80;77.90;;;13.49;64.46;95684.88;5056830;28;20192;-18
2023/04/10 09:34:22;;;;;;;0.90;0.90;;;13.80;77.90;;;13.49;64.43;95688.34;5057203;28;20192;-19
2023/04/10 09:36:56;;;;;;;0.60;0.60;;;13.80;77.80;;;13.50;64.32;95681.25;5056862;28;20187;-18
2023/04/10 09:39:41;;;;;;;0.60;0.60;;;13.80;77.60;;;13.50;64.31;95678.63;5056902;28;20175;-18
2023/04/10 09:42:13;;;;;;;0.80;0.80;;;13.80;77.30;;;13.47;64.16;95665.84;5040131;28;20182;-18
2023/04/10 09:44:42;;;;;;;0.50;0.50;;;13.80;77.30;;;13.47;64.21;95669.28;5056430;28;20199;-18
2023/04/10 09:47:12;;;;;;;0.50;0.50;;;13.80;77.30;;;13.48;64.10;95667.47;5008201;28;20195;-18
2023/04/10 09:49:59;;;;;;;0.52;0.52;;;13.80;77.30;;;13.48;63.91;95662.19;5057426;28;20209;-18
2023/04/10 09:52:30;;;;;;;0.80;0.80;;;13.80;77.30;;;13.48;64.00;95663.00;5053640;28;20210;-18
2023/04/10 09:55:07;;;;;;;0.50;0.50;;;13.80;77.30;;;13.49;64.14;95654.09;5057167;28;20595;-18
2023/04/10 09:57:35;;;;;;;0.60;0.60;;;13.80;77.30;;;13.52;64.29;95650.25;5057203;28;20187;-18
2023/04/10 10:00:07;;;;;;;0.60;0.60;;;13.80;77.70;;;13.54;63.95;95649.06;5057028;28;20215;-18
2023/04/10 10:02:40;;;;;;;0.82;0.82;;;13.80;77.50;;;13.55;64.12;95650.69;5023999;28;20225;-18
2023/04/10 10:05:10;;;;;;;0.60;0.60;;;13.80;77.50;;;13.58;63.90;95647.66;5056531;28;20199;-25
2023/04/10 10:07:38;;;;;;;0.60;0.60;;;13.90;77.40;;;13.59;63.66;95641.38;5039843;28;20215;-18
2023/04/10 10:10:08;;;;;;;0.52;0.52;;;13.90;77.50;;;13.64;63.81;95642.63;5057355;28;20211;-18
2023/04/10 10:12:59;;;;;;;0.70;0.70;;;13.90;77.60;;;13.64;63.84;95638.16;5056790;28;20202;-18
2023/04/10 10:15:36;;;;;;;0.50;0.50;;;13.90;77.40;;;13.67;63.62;95635.16;5057221;28;20298;-18
2023/04/10 10:18:25;;;;;;;0.70;0.70;;;13.90;77.70;;;13.70;63.61;95631.31;5040023;28;20169;-18
2023/04/10 10:20:53;;;;;;;0.60;0.60;;;13.90;77.40;;;13.71;63.66;95631.13;5040495;28;20191;-18
2023/04/10 10:23:21;;;;;;;0.50;0.50;;;13.90;77.60;;;13.73;63.76;95621.22;5040127;28;20187;-18
2023/04/10 10:25:50;;;;;;;0.70;0.70;;;14.00;77.60;;;13.76;63.58;95618.16;5038546;28;20192;-18
2023/04/10 10:28:19;;;;;;;0.60;0.60;;;14.00;77.40;;;13.79;63.87;95619.59;5038717;28;20514;-18
2023/04/10 10:30:50;;;;;;;0.80;0.80;;;14.00;77.40;;;13.80;63.78;95615.16;5039949;28;20223;-18
2023/04/10 10:33:18;;;;;;;0.60;0.60;;;14.00;77.40;;;13.82;63.66;95610.47;5039598;28;20191;-18
2023/04/10 10:35:46;;;;;;;0.80;0.80;;;14.00;77.40;;;13.83;63.54;95610.31;5039852;28;20212;-18
2023/04/10 10:38:15;;;;;;;0.70;0.70;;;14.00;77.40;;;13.85;63.00;95607.47;5038995;28;20198;-18
2023/04/10 10:40:51;;;;;;;0.70;0.70;;;14.10;77.50;;;13.85;62.90;95610.91;5039434;28;20192;-19
2023/04/10 10:43:36;;;;;;;0.60;0.60;;;14.10;77.00;;;13.82;62.67;95611.31;5038790;28;20183;-18
2023/04/10 10:46:13;;;;;;;0.70;0.70;;;14.10;76.50;;;13.82;62.88;95605.19;5037037;28;20209;-18